createdAt,value
2022-10-22T00:01:05.262Z,11.75
2022-10-22T00:03:32.251Z,11.00
2022-10-22T00:05:59.279Z,12.00
2022-10-22T00:08:26.243Z,11.25
2022-10-22T00:10:53.293Z,12.00
2022-10-22T00:13:20.235Z,11.00
2022-10-22T00:15:47.195Z,10.00
2022-10-22T00:18:14.481Z,11.00
2022-10-22T00:20:41.427Z,10.25
2022-10-22T00:23:08.421Z,12.00
2022-10-22T00:25:36.204Z,11.75
2022-10-22T00:28:03.423Z,12.00
2022-10-22T00:30:30.454Z,11.00
2022-10-22T00:32:57.403Z,12.00
2022-10-22T00:35:24.390Z,12.75
2022-10-22T00:37:51.364Z,10.75
2022-10-22T00:40:18.355Z,10.75
2022-10-22T00:42:45.352Z,12.00
2022-10-22T00:45:12.245Z,11.00
2022-10-22T00:47:41.820Z,9.75
2022-10-22T00:50:33.501Z,11.25
2022-10-22T00:53:00.507Z,10.25
2022-10-22T00:55:27.585Z,10.75
2022-10-22T00:57:57.967Z,9.50
2022-10-22T01:00:25.030Z,11.00
2022-10-22T01:02:52.155Z,9.75
2022-10-22T01:05:19.196Z,10.00
2022-10-22T01:08:05.922Z,9.00
2022-10-22T01:11:04.361Z,10.00
2022-10-22T01:14:05.664Z,10.00
2022-10-22T01:17:04.098Z,11.25
2022-10-22T01:19:52.239Z,10.00
2022-10-22T01:22:43.235Z,10.50
2022-10-22T01:25:15.211Z,11.00
2022-10-22T01:28:00.416Z,4.00
2022-10-22T01:30:27.346Z,9.75
2022-10-22T01:32:56.766Z,10.75
2022-10-22T01:35:26.073Z,9.00
2022-10-22T01:37:54.913Z,11.00
2022-10-22T01:40:22.102Z,9.00
2022-10-22T01:42:59.841Z,10.75
2022-10-22T01:45:27.603Z,8.50
2022-10-22T01:48:17.053Z,9.00
2022-10-22T01:50:55.978Z,10.00
2022-10-22T01:53:22.922Z,10.75
2022-10-22T01:56:02.593Z,8.00
2022-10-22T01:59:12.531Z,11.00
2022-10-22T02:01:48.956Z,10.00
2022-10-22T02:05:10.863Z,10.75
2022-10-22T02:08:03.727Z,10.75
2022-10-22T02:10:30.799Z,10.25
2022-10-22T02:12:57.972Z,10.00
2022-10-22T02:15:25.945Z,10.00
2022-10-22T02:17:53.150Z,9.25
2022-10-22T02:20:22.302Z,10.00
2022-10-22T02:22:49.281Z,10.25
2022-10-22T02:25:16.247Z,10.00
2022-10-22T02:27:48.111Z,7.75
2022-10-22T02:32:54.684Z,9.00
2022-10-22T02:35:23.284Z,9.00
2022-10-22T02:37:50.501Z,10.00
2022-10-22T02:40:17.613Z,9.00
2022-10-22T02:42:44.544Z,10.00
2022-10-22T02:45:11.556Z,9.00
2022-10-22T02:47:38.538Z,9.00
2022-10-22T02:50:09.378Z,10.00
2022-10-22T02:52:37.607Z,8.75
2022-10-22T02:55:05.317Z,7.00
2022-10-22T02:57:32.389Z,9.00
2022-10-22T02:59:59.344Z,9.75
2022-10-22T03:02:26.243Z,10.25
2022-10-22T03:04:53.220Z,10.25
2022-10-22T03:07:20.321Z,10.25
2022-10-22T03:09:47.320Z,10.00
2022-10-22T03:12:14.249Z,10.75
2022-10-22T03:14:41.245Z,6.75
2022-10-22T03:17:08.184Z,9.00
2022-10-22T03:19:36.001Z,10.50
2022-10-22T03:22:04.595Z,9.00
2022-10-22T03:24:42.239Z,9.75
2022-10-22T03:27:09.375Z,8.00
2022-10-22T03:29:37.780Z,9.00
2022-10-22T03:32:04.864Z,9.00
2022-10-22T03:34:31.829Z,8.50
2022-10-22T03:36:59.585Z,9.00
2022-10-22T03:39:26.527Z,10.75
2022-10-22T03:41:53.540Z,9.25
2022-10-22T03:44:20.468Z,8.00
2022-10-22T03:46:47.430Z,8.00
2022-10-22T03:49:14.377Z,9.25
2022-10-22T03:51:41.366Z,10.00
2022-10-22T03:54:08.340Z,9.50
2022-10-22T03:56:35.360Z,10.00
2022-10-22T03:59:02.533Z,8.00
2022-10-22T04:01:29.954Z,9.50
2022-10-22T04:03:57.652Z,9.50
2022-10-22T04:06:24.652Z,8.00
2022-10-22T04:08:51.720Z,8.00
2022-10-22T04:11:18.743Z,9.00
2022-10-22T04:13:45.710Z,7.00
2022-10-22T04:16:17.647Z,8.75
2022-10-22T04:18:44.836Z,8.25
2022-10-22T04:21:12.578Z,10.00
2022-10-22T04:23:39.530Z,8.00
2022-10-22T04:26:07.858Z,9.75
2022-10-22T04:28:35.317Z,8.25
2022-10-22T04:31:08.417Z,9.00
2022-10-22T04:33:35.398Z,6.00
2022-10-22T04:36:07.884Z,9.00
2022-10-22T04:38:34.855Z,8.75
2022-10-22T04:41:17.403Z,9.00
2022-10-22T04:43:44.653Z,7.00
2022-10-22T04:46:12.281Z,9.00
2022-10-22T04:48:40.544Z,9.25
2022-10-22T04:51:07.778Z,4.00
2022-10-22T04:53:35.909Z,6.75
2022-10-22T04:56:22.955Z,8.00
2022-10-22T04:58:51.605Z,8.50
2022-10-22T05:01:22.838Z,8.00
2022-10-22T05:03:50.746Z,8.75
2022-10-22T05:06:17.954Z,8.25
2022-10-22T05:08:45.062Z,9.25
2022-10-22T05:11:16.718Z,8.25
2022-10-22T05:13:43.741Z,8.75
2022-10-22T05:16:11.636Z,8.00
2022-10-22T05:18:38.870Z,8.00
2022-10-22T05:21:08.532Z,8.00
2022-10-22T05:23:35.506Z,9.00
2022-10-22T05:26:06.132Z,7.00
2022-10-22T05:28:33.488Z,7.50
2022-10-22T05:31:00.808Z,8.50
2022-10-22T05:33:28.525Z,9.00
2022-10-22T05:35:55.657Z,8.00
2022-10-22T05:38:22.687Z,9.00
2022-10-22T05:40:49.709Z,6.00
2022-10-22T05:43:16.675Z,8.00
2022-10-22T05:45:43.778Z,8.00
2022-10-22T05:48:10.749Z,9.00
2022-10-22T05:50:38.104Z,7.00
2022-10-22T05:53:08.234Z,7.00
2022-10-22T05:55:40.764Z,8.25
2022-10-22T05:58:07.716Z,8.00
2022-10-22T06:00:35.028Z,8.25
2022-10-22T06:03:01.992Z,8.00
2022-10-22T06:05:28.969Z,8.00
2022-10-22T06:07:55.952Z,8.00
2022-10-22T06:10:22.887Z,9.00
2022-10-22T06:12:49.932Z,9.00
2022-10-22T06:15:17.759Z,7.00
2022-10-22T06:17:45.347Z,8.75
2022-10-22T06:20:12.623Z,9.50
2022-10-22T06:22:39.890Z,8.25
2022-10-22T06:25:08.686Z,7.75
2022-10-22T06:27:35.699Z,9.00
2022-10-22T06:30:02.666Z,8.75
2022-10-22T06:32:29.630Z,7.75
2022-10-22T06:34:56.596Z,8.00
2022-10-22T06:37:23.555Z,9.00
2022-10-22T06:39:50.487Z,7.25
2022-10-22T06:42:17.463Z,8.50
2022-10-22T06:44:44.381Z,6.50
2022-10-22T06:47:11.344Z,8.75
2022-10-22T06:49:38.397Z,9.00
2022-10-22T06:52:05.977Z,9.00
2022-10-22T06:54:33.012Z,9.00
2022-10-22T06:56:59.923Z,5.00
2022-10-22T06:59:26.867Z,8.50
2022-10-22T07:01:53.797Z,9.00
2022-10-22T07:04:20.758Z,8.75
2022-10-22T07:06:47.743Z,9.25
2022-10-22T07:09:15.083Z,9.75
2022-10-22T07:11:45.583Z,7.00
2022-10-22T07:14:12.800Z,8.25
2022-10-22T07:16:42.317Z,9.00
2022-10-22T07:19:09.322Z,9.75
2022-10-22T07:21:36.358Z,9.00
2022-10-22T07:24:03.452Z,8.00
2022-10-22T07:26:33.239Z,9.00
2022-10-22T07:29:00.875Z,10.00
2022-10-22T07:31:27.973Z,9.00
2022-10-22T07:33:54.989Z,9.00
2022-10-22T07:36:22.133Z,8.75
2022-10-22T07:38:53.671Z,7.25
2022-10-22T07:41:20.635Z,8.00
2022-10-22T07:43:47.613Z,10.00
2022-10-22T07:46:14.574Z,9.00
2022-10-22T07:48:41.619Z,10.25
2022-10-22T07:51:08.556Z,11.00
2022-10-22T07:53:35.511Z,14.00
2022-10-22T07:56:02.666Z,19.00
2022-10-22T07:58:29.770Z,20.75
2022-10-22T08:00:57.819Z,22.25
2022-10-22T08:03:24.836Z,21.00
2022-10-22T08:18:21.121Z,24.25
2022-10-22T08:43:19.072Z,19.00
2022-10-22T08:54:36.380Z,19.25
2022-10-22T09:01:38.383Z,17.00
2022-10-22T09:04:49.759Z,16.00
2022-10-22T09:18:49.663Z,17.00
2022-10-22T09:22:04.352Z,16.25
2022-10-22T09:25:07.626Z,16.00
2022-10-22T09:28:13.531Z,15.00
2022-10-22T09:31:20.161Z,17.50
2022-10-22T09:36:54.553Z,15.50
2022-10-22T09:39:58.980Z,16.50
2022-10-22T09:43:07.612Z,15.25
2022-10-22T09:49:58.966Z,17.75
2022-10-22T09:53:19.499Z,17.25
2022-10-22T10:00:16.963Z,18.25
2022-10-22T10:03:14.940Z,20.00
2022-10-22T10:13:20.373Z,21.25
2022-10-22T10:19:52.868Z,21.25
2022-10-22T10:23:07.395Z,19.50
2022-10-22T10:26:24.632Z,21.25
2022-10-22T10:29:50.155Z,20.50
2022-10-22T10:39:35.930Z,24.00
2022-10-22T10:42:55.898Z,21.00
2022-10-22T10:46:37.084Z,23.75
2022-10-22T10:49:55.629Z,22.25
2022-10-22T10:53:14.287Z,22.00
2022-10-22T11:17:14.942Z,20.50
2022-10-22T11:20:15.218Z,20.25
2022-10-22T11:23:45.142Z,20.50
2022-10-22T11:30:04.708Z,20.00
2022-10-22T11:32:35.576Z,19.00
2022-10-22T11:38:49.132Z,21.00
2022-10-22T11:41:20.336Z,20.25
2022-10-22T11:44:05.843Z,19.75
2022-10-22T11:46:56.473Z,19.00
2022-10-22T11:49:28.358Z,18.50
2022-10-22T11:52:33.863Z,20.25
2022-10-22T11:55:04.090Z,16.50
2022-10-22T11:57:38.341Z,20.50
2022-10-22T12:00:40.999Z,17.75
2022-10-22T12:03:18.518Z,17.75
2022-10-22T12:05:46.321Z,18.00
2022-10-22T12:08:24.330Z,18.25
2022-10-22T12:11:04.607Z,18.00
2022-10-22T12:13:51.009Z,17.75
2022-10-22T12:16:27.241Z,17.00
2022-10-22T12:19:25.412Z,18.00
2022-10-22T12:22:22.582Z,19.00
2022-10-22T12:24:51.530Z,17.00
2022-10-22T12:27:22.950Z,19.50
2022-10-22T12:29:54.344Z,15.00
2022-10-22T12:32:21.449Z,17.00
2022-10-22T12:34:52.426Z,18.25
2022-10-22T12:37:19.594Z,17.75
2022-10-22T12:39:46.838Z,17.50
2022-10-22T12:42:15.325Z,16.25
2022-10-22T12:44:44.005Z,16.25
2022-10-22T12:47:17.631Z,16.00
2022-10-22T12:49:47.965Z,16.00
2022-10-22T12:52:22.539Z,17.00
2022-10-22T12:54:52.625Z,14.75
2022-10-22T12:57:19.868Z,15.50
2022-10-22T12:59:49.839Z,17.00
2022-10-22T13:02:27.351Z,16.00
2022-10-22T13:05:31.139Z,15.00
2022-10-22T13:08:11.729Z,15.00
2022-10-22T13:10:40.772Z,15.50
2022-10-22T13:13:07.873Z,16.75
2022-10-22T13:15:37.172Z,13.25
2022-10-22T13:18:04.271Z,14.75
2022-10-22T13:20:31.305Z,17.00
2022-10-22T13:23:03.449Z,15.00
2022-10-22T13:25:34.784Z,15.75
2022-10-22T13:28:22.176Z,14.50
2022-10-22T13:30:53.788Z,15.00
2022-10-22T13:33:26.475Z,16.75
2022-10-22T13:35:53.641Z,15.00
2022-10-22T13:38:21.720Z,16.75
2022-10-22T13:40:48.699Z,15.25
2022-10-22T13:43:16.338Z,15.00
2022-10-22T13:45:44.841Z,13.00
2022-10-22T13:48:20.196Z,14.50
2022-10-22T13:50:47.207Z,14.00
2022-10-22T13:53:18.911Z,14.75
2022-10-22T13:55:46.431Z,14.75
2022-10-22T13:58:14.933Z,13.25
2022-10-22T14:00:42.834Z,16.00
2022-10-22T14:03:14.171Z,12.50
2022-10-22T14:05:41.439Z,9.00
2022-10-22T14:08:19.645Z,13.25
2022-10-22T14:10:46.748Z,15.00
2022-10-22T14:13:16.152Z,16.00
2022-10-22T14:15:43.538Z,15.25
2022-10-22T14:18:12.838Z,13.25
2022-10-22T14:20:40.592Z,14.50
2022-10-22T14:23:27.643Z,16.00
2022-10-22T14:25:54.744Z,11.25
2022-10-22T14:28:21.709Z,12.25
2022-10-22T14:30:48.702Z,12.00
2022-10-22T14:33:18.728Z,15.00
2022-10-22T14:35:45.742Z,14.50
2022-10-22T14:38:12.751Z,14.25
2022-10-22T14:40:40.042Z,16.25
2022-10-22T14:43:07.033Z,14.25
2022-10-22T14:45:33.986Z,15.75
2022-10-22T14:48:02.166Z,15.00
2022-10-22T14:50:29.145Z,16.75
2022-10-22T14:52:57.509Z,13.00
2022-10-22T14:55:26.460Z,15.50
2022-10-22T14:57:54.190Z,15.00
2022-10-22T15:00:21.317Z,16.50
2022-10-22T15:02:48.422Z,15.50
2022-10-22T15:05:15.789Z,15.75
2022-10-22T15:07:43.145Z,13.50
2022-10-22T15:10:10.523Z,2.50
2022-10-22T15:12:37.500Z,16.25
2022-10-22T15:15:04.894Z,8.75
2022-10-22T15:17:31.897Z,13.25
2022-10-22T15:20:01.368Z,13.00
2022-10-22T15:22:28.895Z,14.75
2022-10-22T15:24:55.829Z,12.75
2022-10-22T15:27:22.780Z,12.75
2022-10-22T15:29:49.744Z,14.50
2022-10-22T15:32:16.796Z,13.00
2022-10-22T15:34:43.812Z,13.00
2022-10-22T15:37:12.315Z,15.75
2022-10-22T15:39:42.585Z,14.75
2022-10-22T15:42:09.973Z,14.25
2022-10-22T15:44:37.186Z,13.75
2022-10-22T15:47:04.352Z,15.25
2022-10-22T15:49:31.350Z,12.75
2022-10-22T15:51:58.357Z,12.25
2022-10-22T15:54:28.371Z,13.50
2022-10-22T15:56:56.369Z,13.25
2022-10-22T15:59:23.340Z,16.00
2022-10-22T16:01:50.337Z,13.25
2022-10-22T16:04:17.451Z,13.75
2022-10-22T16:06:48.884Z,14.25
2022-10-22T16:09:17.640Z,13.00
2022-10-22T16:11:44.708Z,13.75
2022-10-22T16:14:15.510Z,14.75
2022-10-22T16:16:44.113Z,16.00
2022-10-22T16:19:11.903Z,13.25
2022-10-22T16:21:38.941Z,12.75
2022-10-22T16:24:07.300Z,13.75
2022-10-22T16:26:34.495Z,13.50
2022-10-22T16:29:01.552Z,13.00
2022-10-22T16:31:28.495Z,13.25
2022-10-22T16:33:55.737Z,12.25
2022-10-22T16:36:22.811Z,12.00
2022-10-22T16:38:49.851Z,14.25
2022-10-22T16:41:20.895Z,13.00
2022-10-22T16:43:48.903Z,14.25
2022-10-22T16:46:17.164Z,12.25
2022-10-22T16:48:51.129Z,14.25
2022-10-22T16:51:19.762Z,15.25
2022-10-22T16:53:46.802Z,14.25
2022-10-22T16:56:14.703Z,11.00
2022-10-22T16:58:46.155Z,11.00
2022-10-22T17:01:16.936Z,9.25
2022-10-22T17:03:45.082Z,12.75
2022-10-22T17:06:12.222Z,12.25
2022-10-22T17:08:39.701Z,12.00
2022-10-22T17:11:10.648Z,13.25
2022-10-22T17:13:38.020Z,13.00
2022-10-22T17:16:05.548Z,12.75
2022-10-22T17:18:32.669Z,13.50
2022-10-22T17:20:59.674Z,11.00
2022-10-22T17:23:28.714Z,12.50
2022-10-22T17:26:08.526Z,13.75
2022-10-22T17:28:36.572Z,12.75
2022-10-22T17:31:03.484Z,13.75
2022-10-22T17:33:31.681Z,15.00
2022-10-22T17:35:58.699Z,16.00
2022-10-22T17:38:25.775Z,13.25
2022-10-22T17:40:52.774Z,14.25
2022-10-22T17:43:19.751Z,10.50
2022-10-22T17:45:46.714Z,14.00
2022-10-22T17:48:13.695Z,15.00
2022-10-22T17:50:43.999Z,14.75
2022-10-22T17:53:12.728Z,13.50
2022-10-22T17:55:39.699Z,13.75
2022-10-22T17:58:06.649Z,14.00
2022-10-22T18:00:34.113Z,13.25
2022-10-22T18:03:01.518Z,11.75
2022-10-22T18:05:28.537Z,11.75
2022-10-22T18:07:56.666Z,12.75
2022-10-22T18:10:23.676Z,14.00
2022-10-22T18:12:50.771Z,13.75
2022-10-22T18:15:17.894Z,13.00
2022-10-22T18:17:47.213Z,12.50
2022-10-22T18:20:14.355Z,11.50
2022-10-22T18:22:42.449Z,12.75
2022-10-22T18:25:10.039Z,13.50
2022-10-22T18:27:37.385Z,12.75
2022-10-22T18:30:04.807Z,14.00
2022-10-22T18:32:33.285Z,12.75
2022-10-22T18:35:00.283Z,12.00
2022-10-22T18:37:27.191Z,12.00
2022-10-22T18:39:54.195Z,13.25
2022-10-22T18:42:21.164Z,12.75
2022-10-22T18:44:48.188Z,13.00
2022-10-22T18:47:15.133Z,13.50
2022-10-22T18:49:42.165Z,13.50
2022-10-22T18:52:09.175Z,12.00
2022-10-22T18:54:36.089Z,12.25
2022-10-22T18:57:03.338Z,15.75
2022-10-22T18:59:30.460Z,13.25
2022-10-22T19:02:00.621Z,12.75
2022-10-22T19:04:33.347Z,13.50
2022-10-22T19:07:00.499Z,15.75
2022-10-22T19:09:27.486Z,13.50
2022-10-22T19:11:54.487Z,13.75
2022-10-22T19:14:22.410Z,13.00
2022-10-22T19:16:49.903Z,15.25
2022-10-22T19:19:18.746Z,14.75
2022-10-22T19:21:45.870Z,13.75
2022-10-22T19:24:12.912Z,16.25
2022-10-22T19:26:39.881Z,15.75
2022-10-22T19:29:06.888Z,14.50
2022-10-22T19:31:33.949Z,13.00
2022-10-22T19:34:01.758Z,15.25
2022-10-22T19:36:30.326Z,12.50
2022-10-22T19:38:57.614Z,14.50
2022-10-22T19:41:25.690Z,14.00
2022-10-22T19:43:53.459Z,15.25
2022-10-22T19:46:20.919Z,13.25
2022-10-22T19:48:48.132Z,16.75
2022-10-22T19:51:17.741Z,13.50
2022-10-22T19:53:44.719Z,14.25
2022-10-22T19:56:11.861Z,3.00
2022-10-22T19:58:39.026Z,15.00
2022-10-22T20:01:10.074Z,13.25
2022-10-22T20:03:37.976Z,14.25
2022-10-22T20:06:05.967Z,9.00
2022-10-22T20:08:36.126Z,13.25
2022-10-22T20:11:03.141Z,13.75
2022-10-22T20:13:30.179Z,14.25
2022-10-22T20:15:57.362Z,16.00
2022-10-22T20:18:24.398Z,7.50
2022-10-22T20:20:51.346Z,16.25
2022-10-22T20:23:18.315Z,16.00
2022-10-22T20:25:46.452Z,16.75
2022-10-22T20:28:16.687Z,13.00
2022-10-22T20:30:44.343Z,16.50
2022-10-22T20:33:11.640Z,17.00
2022-10-22T20:35:38.667Z,16.00
2022-10-22T20:38:06.946Z,16.75
2022-10-22T20:40:34.311Z,14.25
2022-10-22T20:43:01.474Z,14.00
2022-10-22T20:45:28.662Z,16.00
2022-10-22T20:48:01.898Z,15.50
2022-10-22T20:50:31.594Z,13.75
2022-10-22T20:52:59.261Z,15.25
2022-10-22T20:55:26.626Z,15.75
2022-10-22T20:57:54.287Z,15.25
2022-10-22T21:00:21.434Z,15.25
2022-10-22T21:02:48.441Z,16.25
2022-10-22T21:05:15.449Z,16.00
2022-10-22T21:07:42.656Z,13.00
2022-10-22T21:10:09.967Z,15.75
2022-10-22T21:12:41.977Z,15.75
2022-10-22T21:15:12.528Z,12.00
2022-10-22T21:17:40.904Z,14.25
2022-10-22T21:20:08.298Z,15.50
2022-10-22T21:22:35.312Z,15.00
2022-10-22T21:25:02.399Z,15.75
2022-10-22T21:27:29.343Z,16.50
2022-10-22T21:29:56.342Z,16.50
2022-10-22T21:32:23.357Z,14.00
2022-10-22T21:34:50.303Z,14.00
2022-10-22T21:37:17.288Z,14.25
2022-10-22T21:39:44.320Z,15.00
2022-10-22T21:42:11.259Z,16.25
2022-10-22T21:44:38.311Z,12.75
2022-10-22T21:47:05.385Z,13.00
2022-10-22T21:49:32.415Z,15.75
2022-10-22T21:52:00.431Z,13.75
2022-10-22T21:54:27.483Z,14.00
2022-10-22T21:56:54.583Z,14.25
2022-10-22T21:59:21.578Z,14.25
2022-10-22T22:01:48.640Z,15.25
2022-10-22T22:04:15.693Z,14.25
2022-10-22T22:06:42.984Z,9.00
2022-10-22T22:09:09.971Z,13.25
2022-10-22T22:11:37.079Z,11.50
2022-10-22T22:14:04.167Z,15.25
2022-10-22T22:16:32.270Z,15.25
2022-10-22T22:19:00.179Z,13.00
2022-10-22T22:21:27.387Z,13.00
2022-10-22T22:23:54.455Z,15.50
2022-10-22T22:26:25.492Z,15.75
2022-10-22T22:28:55.977Z,14.50
2022-10-22T22:31:25.284Z,11.50
2022-10-22T22:33:57.857Z,14.25
2022-10-22T22:36:24.806Z,13.25
2022-10-22T22:38:55.596Z,13.25
2022-10-22T22:41:22.996Z,12.25
2022-10-22T22:43:50.062Z,13.25
2022-10-22T22:46:17.095Z,12.75
2022-10-22T22:48:44.151Z,13.00
2022-10-22T22:51:11.106Z,13.00
2022-10-22T22:53:38.078Z,13.25
2022-10-22T22:56:12.536Z,15.00
2022-10-22T22:58:40.763Z,13.00
2022-10-22T23:01:31.900Z,11.75
2022-10-22T23:04:03.192Z,13.00
2022-10-22T23:06:31.697Z,16.00
2022-10-22T23:08:59.106Z,12.00
2022-10-22T23:11:26.661Z,12.50
2022-10-22T23:13:55.248Z,14.25
2022-10-22T23:16:23.219Z,12.75
2022-10-22T23:18:50.576Z,15.25
2022-10-22T23:21:25.574Z,15.50
2022-10-22T23:23:54.421Z,13.00
2022-10-22T23:26:48.317Z,15.00
2022-10-22T23:29:19.932Z,12.50
2022-10-22T23:31:47.034Z,10.00
2022-10-22T23:34:16.370Z,13.00
2022-10-22T23:36:43.431Z,12.00
2022-10-22T23:39:12.160Z,14.25
2022-10-22T23:41:39.091Z,14.75
2022-10-22T23:44:06.649Z,13.00
2022-10-22T23:46:33.781Z,13.25
2022-10-22T23:49:01.401Z,13.50
2022-10-22T23:51:29.121Z,15.00
2022-10-22T23:53:58.489Z,13.50
2022-10-22T23:56:25.445Z,14.25
2022-10-22T23:58:52.738Z,13.00
